หน้าหลัก
METAR-TAF:

METAR-TAF

ท่าอากาศยาน :

Vamdrup

Kolding, เดนมาร์ก

ละติจูด: 55-26N, ลองจิจูด: 009-20E, ความสูง: 44 ม.

การสังเกตสภาพอากาศปัจจุบัน

รายงานได้ทำขึ้นเมื่อ 24 นาทีที่แล้ว ณ เวลา 23:20 UTC
ลม 2 นอตจากตะวันออก
อุณหภูมิ 12°C
ความชื้น 100%
ความกดอากาศ 1018 hPa

METAR: EKVD 192320Z AUTO 09002KT //// ///////// 12/12 Q1018

เวลา: 01:44 (23:44 UTC)

การพยากรณ์

รายงานได้ทำขึ้นเมื่อ 11 ชั่วโมงและ 44 นาทีที่แล้ว ณ เวลา 12:00 UTC
การพยากรณ์มีผลตั้งแต่วันที่ 19 ณ เวลา 12 UTC จนถึงวันที่ 19 ณ เวลา 16 UTC
ลม 3 นอตจากใต้/ตะวันออกเฉียงใต้
ทัศนวิสัย 10 กม. หรือมากกว่า
ไม่มีเมฆต่ำกว่า 1,500 ม. และไม่มีเมฆคิวมูโลนิมบัส

TAF: EKVD 191200Z 1912/1916 15003KT CAVOK

สังเกตการณ์สภาพอากาศและพยากรณ์อากาศของสนามบินมากกว่า 4000 แห่ง (รายงาน METAR และ TAF).

สถานีที่ดูได้จะแสดงไว้ด้วยจุดสีเหลืองและสีแดงบนแผนที่.

เลื่อนเมาส์ไปเหนือจุดเพื่อดูชื่อสถานี.

แล้วคลิกเพื่อดูสังเกตการณ์และการพยากรณ์สภาพอากาศ.

ในการเปลี่ยนแผนที่: คลิกที่ปุ่มสีเขียวที่มีกากบาทสีดำเพื่อซูมเข้า; ที่ปุ่มสีเขียวที่มีขีดเพื่อซูมออก; หรือที่ลูกศรสีเขียวเพื่อไปยังแผนที่ที่อยู่ติดกัน.


METAR-TAF: